This is the latest recevied weather packets stored in our database for station/object KB2AHZ. If no packets are shown the sender has not sent any weather packets the latest 10 day(s).
| Time | Temp. | Humidity | Pressure | Rain* | Wind** | Luminosity | Snow |
|---|---|---|---|---|---|---|---|
| 1777676558 | 17.78° C | 59% | 1011.8 hPa | 0 mm | - | 35 W/m² | - |
| 1777676255 | 17.78° C | 58% | 1012.1 hPa | 0 mm | - | 36 W/m² | - |
| 1777675952 | 17.78° C | 59% | 1012 hPa | 0 mm | - | 38 W/m² | - |
| 1777675648 | 18.33° C | 57% | 1011.8 hPa | 0 mm | - | 40 W/m² | - |
| 1777675346 | 18.33° C | 55% | 1011.7 hPa | 0 mm | - | 46 W/m² | - |
| 1777675042 | 18.33° C | 55% | 1011.9 hPa | 0 mm | - | 61 W/m² | - |
| 1777674738 | 18.89° C | 56% | 1012 hPa | 0 mm | - | 69 W/m² | - |
| 1777674435 | 18.89° C | 54% | 1012.1 hPa | 0 mm | - | 77 W/m² | - |
| 1777674133 | 18.89° C | 54% | 1012.1 hPa | 0 mm | - | 63 W/m² | - |
| 1777673829 | 18.89° C | 51% | 1012.3 hPa | 0 mm | - | 57 W/m² | - |
| 1777673526 | 19.44° C | 50% | 1011.9 hPa | 0 mm | - | 120 W/m² | - |
| 1777673223 | 19.44° C | 52% | 1012.2 hPa | 0 mm | - | 215 W/m² | - |
| 1777672921 | 19.44° C | 52% | 1012.1 hPa | 0 mm | - | 206 W/m² | - |
| 1777672617 | 19.44° C | 52% | 1012.3 hPa | 0 mm | - | 223 W/m² | - |
| 1777672312 | 19.44° C | 51% | 1012.6 hPa | 0 mm | - | 230 W/m² | - |
| 1777672007 | 19.44° C | 52% | 1012.6 hPa | 0 mm | - | 266 W/m² | - |
| 1777671703 | 19.44° C | 49% | 1012.4 hPa | 0 mm | - | 237 W/m² | - |
| 1777671400 | 19.44° C | 50% | 1012.5 hPa | 0 mm | - | 237 W/m² | - |
| 1777671096 | 19.44° C | 48% | 1012.5 hPa | 0 mm | - | 254 W/m² | - |
| 1777670793 | 19.44° C | 48% | 1012.6 hPa | 0 mm | - | 328 W/m² | - |
| 1777670490 | 19.44° C | 47% | 1012.5 hPa | 0 mm | - | 298 W/m² | - |
| 1777670186 | 19.44° C | 50% | 1012.6 hPa | 0 mm | - | 358 W/m² | - |
| 1777669884 | 19.44° C | 50% | 1012.6 hPa | 0 mm | - | 322 W/m² | - |
| 1777669581 | 19.44° C | 50% | 1012.6 hPa | 0 mm | - | 328 W/m² | - |
| 1777669277 | 19.44° C | 48% | 1012.5 hPa | 0 mm | - | 227 W/m² | - |
* Rain latest hour (hover to see other rain measurements)
** Current wind speed in m/s (hover to see current wind gust speed)